Time;durP1;ratioP1;P1;durP2;ratioP2;P2;SDS_P1;SDS_P2;PMS_P1;PMS_P2;Temp;Humidity;BMP_temperature;BMP_pressure;BME280_temperature;BME280_humidity;BME280_pressure;Samples;Min_cycle;Max_cycle;Signal;HPM_P1;HPM_P2
2024/03/18 00:02:16;;;;;;;7.87;6.70;;;;;;;14.53;60.47;97548.56;5015683;28;20427;-69
2024/03/18 00:04:41;;;;;;;8.33;7.47;;;;;;;14.54;60.51;97542.31;5019382;28;20570;-68
2024/03/18 00:07:07;;;;;;;12.10;7.50;;;;;;;14.39;60.79;97540.34;5017846;28;20203;-72
2024/03/18 00:09:33;;;;;;;8.93;7.10;;;;;;;14.33;60.76;97538.38;5030857;28;20184;-72
2024/03/18 00:11:58;;;;;;;9.37;6.23;;;;;;;14.27;60.96;97537.22;5018287;28;20208;-72
2024/03/18 00:14:24;;;;;;;10.60;6.10;;;;;;;14.29;60.79;97532.63;5020828;28;21051;-70
2024/03/18 00:16:49;;;;;;;8.93;6.97;;;;;;;14.23;60.77;97530.69;5019034;28;20646;-70
2024/03/18 00:19:15;;;;;;;7.90;6.43;;;;;;;14.23;61.16;97527.19;5013950;28;20203;-70
2024/03/18 00:21:40;;;;;;;8.17;6.50;;;;;;;14.29;61.06;97532.63;5028219;28;20186;-69
2024/03/18 00:24:06;;;;;;;8.00;6.07;;;;;;;14.34;61.07;97533.94;5019476;28;20223;-70
2024/03/18 00:26:34;;;;;;;14.33;6.30;;;;;;;14.40;60.80;97534.09;5023094;28;20180;-69
2024/03/18 00:28:59;;;;;;;7.73;6.73;;;;;;;14.38;61.08;97537.88;5019317;28;20243;-70
2024/03/18 00:31:25;;;;;;;11.60;7.00;;;;;;;14.35;61.26;97543.50;5026812;28;20841;-71
2024/03/18 00:33:50;;;;;;;8.13;6.53;;;;;;;14.35;61.20;97540.88;5037479;28;20208;-71
2024/03/18 00:36:16;;;;;;;9.03;6.60;;;;;;;14.35;61.39;97543.50;5030642;28;20188;-70
2024/03/18 00:38:41;;;;;;;9.93;6.90;;;;;;;14.33;61.56;97541.00;5031842;28;20183;-69
2024/03/18 00:43:51;;;;;;;9.67;6.87;;;;;;;14.37;61.72;97531.78;5035712;28;20203;-70
2024/03/18 00:46:16;;;;;;;10.47;7.70;;;;;;;14.17;62.17;97531.31;5029283;28;20480;-71
2024/03/18 00:48:42;;;;;;;17.00;6.77;;;;;;;14.15;62.63;97527.22;5031446;28;20207;-69
2024/03/18 00:51:07;;;;;;;9.23;7.63;;;;;;;14.04;62.90;97523.94;5033494;28;20184;-71
2024/03/18 00:53:33;;;;;;;8.80;7.07;;;;;;;14.15;62.74;97516.69;5032715;28;20275;-70
2024/03/18 00:55:58;;;;;;;11.93;7.60;;;;;;;14.27;62.46;97516.16;5031377;28;20563;-70
2024/03/18 00:58:23;;;;;;;8.53;7.00;;;;;;;14.37;62.11;97515.97;5035188;28;20259;-70
2024/03/18 01:00:49;;;;;;;11.43;7.83;;;;;;;14.35;62.00;97517.13;5031357;28;20275;-71
2024/03/18 01:03:15;;;;;;;8.87;7.80;;;;;;;14.33;61.81;97509.38;5035736;28;20214;-71
2024/03/18 01:05:40;;;;;;;10.20;7.87;;;;;;;14.27;62.03;97510.88;5031043;28;20665;-69
2024/03/18 01:08:06;;;;;;;8.83;7.37;;;;;;;14.26;62.19;97503.97;5030611;28;20298;-70
2024/03/18 01:10:32;;;;;;;11.60;6.83;;;;;;;14.28;62.39;97494.06;5031298;28;20199;-71
2024/03/18 01:12:58;;;;;;;8.80;6.70;;;;;;;14.26;62.32;97496.03;5023509;28;20904;-71
2024/03/18 01:15:23;;;;;;;9.23;7.17;;;;;;;14.20;62.60;97488.00;5036679;28;20502;-70
2024/03/18 01:17:49;;;;;;;10.40;7.30;;;;;;;14.23;62.52;97487.66;5030666;28;20548;-71
2024/03/18 01:20:16;;;;;;;9.87;6.90;;;;;;;14.15;62.66;97490.31;5033071;28;20191;-70
2024/03/18 01:22:42;;;;;;;13.33;7.63;;;;;;;14.14;62.71;97473.66;5027830;28;20592;-70
2024/03/18 01:25:13;;;;;;;8.63;7.10;;;;;;;14.17;62.82;97473.34;5030661;28;20430;-72
2024/03/18 01:27:41;;;;;;;14.13;7.53;;;;;;;14.23;62.79;97471.84;5025882;28;20454;-69
2024/03/18 01:30:16;;;;;;;11.40;7.63;;;;;;;14.27;62.74;97473.97;5024627;28;20423;-70
2024/03/18 01:32:42;;;;;;;8.53;7.03;;;;;;;14.35;62.55;97474.94;5030014;28;20456;-69
2024/03/18 01:35:08;;;;;;;8.67;7.63;;;;;;;14.34;62.72;97473.31;5045750;28;20545;-71
2024/03/18 01:37:38;;;;;;;8.90;7.33;;;;;;;14.26;62.66;97467.03;5031205;28;20418;-69
2024/03/18 01:40:04;;;;;;;13.97;7.43;;;;;;;14.22;62.48;97471.03;5029415;28;20480;-71
2024/03/18 01:42:29;;;;;;;10.10;7.47;;;;;;;14.29;62.24;97471.19;5030463;28;20454;-71
2024/03/18 01:44:55;;;;;;;8.17;7.27;;;;;;;14.29;62.14;97455.38;5028483;28;20888;-71
2024/03/18 01:47:22;;;;;;;10.53;7.60;;;;;;;14.28;61.73;97457.16;5028034;28;20200;-70
2024/03/18 01:49:50;;;;;;;11.77;7.20;;;;;;;14.22;62.07;97455.22;5030647;28;20802;-71
2024/03/18 01:52:16;;;;;;;10.77;7.43;;;;;;;14.23;62.17;97458.66;5029768;28;20484;-70
2024/03/18 01:54:42;;;;;;;9.50;7.37;;;;;;;14.25;62.41;97456.69;5045812;28;20438;-71
2024/03/18 01:57:07;;;;;;;10.50;7.93;;;;;;;14.21;62.23;97448.31;5029457;28;20924;-70
2024/03/18 01:59:33;;;;;;;10.97;8.40;;;;;;;14.19;62.68;97450.28;5031547;28;20184;-71
2024/03/18 02:01:58;;;;;;;13.33;8.13;;;;;;;14.25;62.63;97444.31;5042530;28;20727;-69
2024/03/18 02:04:24;;;;;;;10.27;9.10;;;;;;;14.29;62.53;97444.81;5031850;28;20644;-68
2024/03/18 02:06:50;;;;;;;9.10;7.33;;;;;;;14.33;62.52;97445.28;5028826;28;20922;-72
2024/03/18 02:09:18;;;;;;;10.77;7.93;;;;;;;14.33;62.27;97451.38;5040145;28;20434;-70
2024/03/18 02:11:43;;;;;;;13.83;8.10;;;;;;;14.28;62.47;97445.81;5036429;28;20454;-69
2024/03/18 02:14:15;;;;;;;9.17;7.37;;;;;;;14.23;62.21;97446.31;5038317;28;20805;-71
2024/03/18 02:16:41;;;;;;;9.63;7.10;;;;;;;14.25;62.59;97441.69;5035576;28;20561;-70
2024/03/18 02:19:07;;;;;;;8.00;7.23;;;;;;;14.16;62.94;97442.69;5037804;28;20450;-69
2024/03/18 02:21:32;;;;;;;10.47;7.17;;;;;;;14.16;63.02;97429.53;5037112;28;20184;-71
2024/03/18 02:23:58;;;;;;;11.43;7.60;;;;;;;14.12;63.08;97425.56;5029037;28;20235;-69
2024/03/18 02:26:23;;;;;;;9.83;7.93;;;;;;;14.11;63.25;97422.13;5028781;28;20266;-70
2024/03/18 02:28:50;;;;;;;7.93;6.70;;;;;;;14.07;63.12;97422.63;5027824;28;20721;-72
2024/03/18 02:31:15;;;;;;;10.80;6.67;;;;;;;14.15;63.20;97412.06;5020613;28;20227;-70
2024/03/18 02:33:42;;;;;;;13.70;7.80;;;;;;;14.21;62.81;97414.03;5018119;28;20588;-72
2024/03/18 02:36:08;;;;;;;14.50;7.80;;;;;;;14.11;62.67;97408.94;5030631;28;20240;-71
2024/03/18 02:38:34;;;;;;;12.80;8.23;;;;;;;14.12;62.75;97402.69;5029308;28;20422;-71
2024/03/18 02:40:59;;;;;;;8.90;7.57;;;;;;;14.17;62.60;97407.44;5027397;28;20427;-72
2024/03/18 02:43:25;;;;;;;11.80;7.43;;;;;;;14.16;62.40;97403.16;5036913;28;20211;-69
2024/03/18 02:45:50;;;;;;;9.40;6.63;;;;;;;14.04;62.92;97401.88;5033981;28;20184;-70
2024/03/18 02:48:18;;;;;;;8.93;6.90;;;;;;;14.01;63.33;97395.16;5022564;28;20640;-69
2024/03/18 02:50:43;;;;;;;7.63;6.83;;;;;;;13.97;63.52;97393.84;5030088;28;20216;-71
2024/03/18 02:53:09;;;;;;;9.73;7.30;;;;;;;14.01;63.55;97395.16;5028894;28;20478;-71
2024/03/18 02:55:35;;;;;;;13.20;7.33;;;;;;;14.01;63.40;97392.53;5035520;28;20187;-71
2024/03/18 02:58:00;;;;;;;8.27;7.47;;;;;;;14.03;63.57;97394.97;5032520;28;20634;-69
2024/03/18 03:00:26;;;;;;;10.97;7.27;;;;;;;14.10;63.27;97386.22;5028862;28;20202;-71
2024/03/18 03:02:52;;;;;;;9.90;7.40;;;;;;;14.13;63.25;97383.25;5036381;28;20271;-72
2024/03/18 03:05:17;;;;;;;9.70;7.80;;;;;;;14.10;63.23;97382.78;5022728;28;20242;-68
2024/03/18 03:07:43;;;;;;;10.83;7.60;;;;;;;14.06;63.69;97381.47;5028784;28;20707;-70
2024/03/18 03:10:09;;;;;;;8.80;7.43;;;;;;;14.06;63.44;97382.28;5028374;28;20249;-70
2024/03/18 03:12:35;;;;;;;13.07;7.87;;;;;;;14.04;63.60;97370.28;5028495;28;20180;-68
2024/03/18 03:15:00;;;;;;;8.23;7.00;;;;;;;14.05;63.57;97371.91;5035055;28;20790;-71
2024/03/18 03:17:27;;;;;;;8.13;7.33;;;;;;;14.14;63.46;97373.53;5028401;28;20191;-71
2024/03/18 03:19:53;;;;;;;10.17;7.93;;;;;;;14.13;63.60;97371.88;5028671;28;20196;-70
2024/03/18 03:22:22;;;;;;;9.90;8.03;;;;;;;14.22;63.49;97381.41;5030256;28;20790;-70
2024/03/18 03:24:47;;;;;;;12.37;8.03;;;;;;;14.27;63.09;97368.53;5028477;28;20446;-70
2024/03/18 03:27:14;;;;;;;8.93;7.80;;;;;;;14.21;62.76;97374.50;5034653;28;20458;-70
2024/03/18 03:29:39;;;;;;;10.97;8.13;;;;;;;14.25;62.90;97369.69;5028772;28;20263;-70
2024/03/18 03:32:05;;;;;;;12.10;9.10;;;;;;;14.28;62.67;97370.16;5027792;28;20423;-71
2024/03/18 03:34:30;;;;;;;12.33;8.67;;;;;;;14.26;62.49;97364.25;5028186;28;20207;-71
2024/03/18 03:36:56;;;;;;;8.93;7.93;;;;;;;14.26;62.46;97372.16;5028140;28;20274;-69
2024/03/18 03:39:23;;;;;;;12.33;7.90;;;;;;;14.26;62.43;97363.44;5023186;28;20848;-71
2024/03/18 03:41:48;;;;;;;10.07;8.20;;;;;;;14.28;61.85;97367.53;5027085;28;20195;-69
2024/03/18 03:44:14;;;;;;;12.90;7.60;;;;;;;14.27;62.00;97362.44;5027523;28;20453;-70
2024/03/18 03:46:39;;;;;;;11.63;7.93;;;;;;;14.25;61.96;97361.78;5033115;28;20183;-70
2024/03/18 03:49:05;;;;;;;10.37;7.87;;;;;;;14.17;62.21;97352.09;5033324;28;20207;-70
2024/03/18 03:51:30;;;;;;;11.53;8.03;;;;;;;14.16;62.59;97345.19;5033741;28;20555;-69
2024/03/18 03:53:57;;;;;;;9.47;7.77;;;;;;;14.12;62.80;97344.72;5038554;28;20199;-68
2024/03/18 03:56:23;;;;;;;9.97;7.97;;;;;;;14.09;62.87;97345.03;5029238;28;20203;-69
2024/03/18 03:58:50;;;;;;;8.67;7.77;;;;;;;14.15;62.84;97340.09;5035659;28;20792;-72
2024/03/18 04:01:17;;;;;;;8.87;7.63;;;;;;;14.23;62.88;97334.78;5027638;28;20947;-70
2024/03/18 04:03:43;;;;;;;10.67;7.50;;;;;;;14.22;62.49;97328.69;5030010;28;20446;-71
2024/03/18 04:06:08;;;;;;;8.43;7.47;;;;;;;14.23;62.50;97327.69;5040319;28;20425;-69
2024/03/18 04:08:34;;;;;;;8.27;7.37;;;;;;;14.26;62.53;97329.97;5032273;28;20211;-71
2024/03/18 04:10:59;;;;;;;7.70;7.00;;;;;;;14.28;62.61;97328.00;5031834;28;20214;-69
2024/03/18 04:13:24;;;;;;;14.50;8.40;;;;;;;14.26;62.54;97327.34;5027724;28;20233;-70
2024/03/18 04:15:50;;;;;;;10.63;7.50;;;;;;;14.28;62.39;97319.28;5045897;28;20203;-71
2024/03/18 04:18:16;;;;;;;7.90;7.10;;;;;;;14.26;62.10;97324.69;5031344;28;20178;-72
2024/03/18 04:20:43;;;;;;;11.73;8.10;;;;;;;14.33;61.43;97318.75;5031148;28;20191;-72
2024/03/18 04:23:09;;;;;;;9.33;7.73;;;;;;;14.28;61.36;97320.09;5030541;28;20442;-72
2024/03/18 04:25:34;;;;;;;10.80;8.33;;;;;;;14.24;61.28;97326.69;5030874;28;22755;-72
2024/03/18 04:28:02;;;;;;;9.63;8.00;;;;;;;14.15;61.68;97314.53;5030935;28;20225;-70
2024/03/18 04:30:28;;;;;;;9.83;7.33;;;;;;;14.14;61.78;97307.63;5039494;28;20198;-69
2024/03/18 04:32:54;;;;;;;11.40;7.57;;;;;;;14.19;62.07;97313.22;5029577;28;20772;-70
2024/03/18 04:35:19;;;;;;;7.57;6.77;;;;;;;14.19;62.11;97315.84;5030414;28;20426;-70
2024/03/18 04:37:46;;;;;;;9.10;8.00;;;;;;;14.19;61.88;97305.31;5023907;28;20796;-69
2024/03/18 04:40:15;;;;;;;10.37;8.50;;;;;;;14.15;61.86;97311.91;5025453;28;20195;-71
2024/03/18 04:42:41;;;;;;;9.73;7.90;;;;;;;14.16;61.70;97303.00;5029882;28;20513;-71
2024/03/18 04:45:07;;;;;;;14.47;9.00;;;;;;;14.16;61.54;97302.22;5030778;28;20500;-69
2024/03/18 04:47:40;;;;;;;17.10;8.43;;;;;;;14.15;61.68;97296.09;5030213;28;20549;-69
2024/03/18 04:50:14;;;;;;;15.13;8.07;;;;;;;14.24;61.62;97304.78;5033639;28;20425;-71
2024/03/18 04:52:39;;;;;;;11.53;8.03;;;;;;;14.27;61.30;97299.19;5029803;28;20422;-71
2024/03/18 04:55:06;;;;;;;10.37;7.70;;;;;;;14.21;61.60;97298.06;5031140;28;20424;-71
2024/03/18 04:57:32;;;;;;;8.40;7.03;;;;;;;14.17;62.12;97291.47;5030140;28;20326;-71
2024/03/18 04:59:58;;;;;;;11.03;7.90;;;;;;;14.17;62.17;97294.13;5031159;28;20415;-69
2024/03/18 05:02:24;;;;;;;12.37;8.07;;;;;;;14.24;62.24;97294.25;5029504;28;20432;-70
2024/03/18 05:04:50;;;;;;;11.07;7.60;;;;;;;14.20;62.21;97301.69;5030585;28;20216;-69
2024/03/18 05:07:15;;;;;;;9.53;8.20;;;;;;;14.25;62.06;97298.53;5030685;28;20265;-69
2024/03/18 05:09:44;;;;;;;11.37;7.50;;;;;;;14.24;61.72;97300.31;5030049;28;20187;-72
2024/03/18 05:12:13;;;;;;;9.07;8.03;;;;;;;14.22;61.88;97294.44;5029513;28;20192;-70
2024/03/18 05:14:39;;;;;;;9.47;7.13;;;;;;;14.26;62.02;97298.34;5024099;28;20435;-69
2024/03/18 05:17:05;;;;;;;9.63;8.00;;;;;;;14.26;62.24;97295.72;5029652;28;20516;-71
2024/03/18 05:19:31;;;;;;;9.50;7.30;;;;;;;14.22;62.00;97286.53;5029365;28;20835;-69
2024/03/18 05:21:56;;;;;;;11.10;7.83;;;;;;;14.19;62.07;97291.28;5033494;28;20199;-71
2024/03/18 05:24:22;;;;;;;10.70;7.80;;;;;;;14.17;62.05;97285.41;5032871;28;20455;-69
2024/03/18 05:26:47;;;;;;;10.50;8.00;;;;;;;14.19;62.58;97289.50;5030309;28;20266;-71
2024/03/18 05:29:12;;;;;;;8.30;7.50;;;;;;;14.22;62.09;97289.16;5029647;28;20684;-70
2024/03/18 05:31:39;;;;;;;10.90;8.27;;;;;;;14.25;62.11;97285.34;5029610;28;20558;-71
2024/03/18 05:34:05;;;;;;;13.80;10.20;;;;;;;14.21;62.12;97282.25;5035428;28;20315;-71
2024/03/18 05:36:32;;;;;;;54.17;37.13;;;;;;;14.17;62.48;97275.66;5031603;28;20434;-70
2024/03/18 05:38:57;;;;;;;95.00;58.17;;;;;;;14.13;62.85;97277.00;5021084;28;20511;-71
2024/03/18 05:41:23;;;;;;;68.17;46.07;;;;;;;14.09;63.13;97271.25;5026389;28;20521;-69
2024/03/18 05:43:49;;;;;;;40.50;27.90;;;;;;;14.15;62.97;97275.00;5031436;28;20218;-71
2024/03/18 05:46:15;;;;;;;28.20;18.80;;;;;;;14.21;62.91;97271.69;5041529;28;20183;-70
2024/03/18 05:48:41;;;;;;;39.20;26.20;;;;;;;14.21;62.86;97262.97;5029983;28;20462;-69
2024/03/18 05:51:06;;;;;;;27.57;20.00;;;;;;;14.26;62.95;97269.34;5033066;28;20267;-70
2024/03/18 05:53:32;;;;;;;30.70;18.63;;;;;;;14.25;62.76;97270.34;5028820;28;20206;-71
2024/03/18 05:55:57;;;;;;;18.43;13.37;;;;;;;14.23;62.53;97267.09;5029543;28;20700;-71
2024/03/18 05:58:22;;;;;;;19.53;12.67;;;;;;;14.16;62.87;97266.13;5029595;28;20184;-69
2024/03/18 06:00:48;;;;;;;15.70;12.00;;;;;;;14.22;62.62;97269.88;5037460;28;20245;-69
2024/03/18 06:03:13;;;;;;;13.00;10.67;;;;;;;14.25;62.93;97272.16;5021030;28;20872;-69
2024/03/18 06:05:40;;;;;;;9.27;7.87;;;;;;;14.24;62.62;97268.69;5028877;28;20258;-70
2024/03/18 06:08:05;;;;;;;13.27;8.80;;;;;;;14.21;62.74;97269.06;5029841;28;20290;-70
2024/03/18 06:10:31;;;;;;;10.27;8.80;;;;;;;14.20;62.84;97270.06;5028298;28;20509;-70
2024/03/18 06:12:56;;;;;;;12.03;8.23;;;;;;;14.20;62.91;97275.31;5034449;28;20184;-70
2024/03/18 06:15:22;;;;;;;11.07;8.30;;;;;;;14.23;62.93;97275.00;5033459;28;20187;-70
2024/03/18 06:17:48;;;;;;;12.10;8.80;;;;;;;14.16;62.96;97274.03;5028910;28;20314;-68
2024/03/18 06:20:14;;;;;;;13.27;9.57;;;;;;;14.15;63.21;97275.00;5029535;28;20183;-69
2024/03/18 06:22:39;;;;;;;14.60;9.73;;;;;;;14.15;63.17;97275.00;5035514;28;20424;-70
2024/03/18 06:27:50;;;;;;;12.10;8.07;;;;;;;14.18;63.26;97269.41;5037315;28;20208;-71
2024/03/18 06:30:16;;;;;;;9.00;7.87;;;;;;;14.27;63.08;97278.91;5029346;28;20802;-71
2024/03/18 06:32:41;;;;;;;11.13;7.70;;;;;;;14.29;62.41;97281.38;5020590;28;20185;-66
2024/03/18 06:35:07;;;;;;;9.10;7.40;;;;;;;14.28;62.58;97277.09;5029215;28;20176;-70
2024/03/18 06:37:35;;;;;;;11.73;7.90;;;;;;;14.36;62.34;97286.78;5028887;28;20750;-69
2024/03/18 06:40:14;;;;;;;9.17;7.37;;;;;;;14.39;62.56;97287.25;5022646;28;20277;-69
2024/03/18 06:42:39;;;;;;;13.80;9.67;;;;;;;14.42;62.37;97291.34;5036755;28;20423;-69
2024/03/18 06:45:07;;;;;;;9.97;8.87;;;;;;;14.35;62.80;97290.41;5033657;28;20823;-71
2024/03/18 06:47:32;;;;;;;11.80;10.07;;;;;;;14.32;62.96;97288.09;5030739;28;20200;-69
2024/03/18 06:49:58;;;;;;;12.90;9.67;;;;;;;14.32;63.22;97296.00;5037696;28;20425;-72
2024/03/18 06:52:23;;;;;;;10.63;9.47;;;;;;;14.25;63.50;97299.34;5032864;28;20682;-72
2024/03/18 06:54:49;;;;;;;11.27;9.20;;;;;;;14.17;63.87;97291.47;5029059;28;20572;-70
2024/03/18 06:57:15;;;;;;;11.70;9.03;;;;;;;14.12;64.25;97289.38;5029187;28;20226;-70
2024/03/18 06:59:40;;;;;;;11.97;8.40;;;;;;;14.14;64.51;97302.38;5028827;28;20195;-72
2024/03/18 07:02:06;;;;;;;11.00;8.73;;;;;;;14.15;64.39;97305.84;5029013;28;20423;-72
2024/03/18 07:04:32;;;;;;;11.77;7.70;;;;;;;14.17;63.99;97304.66;5030181;28;20675;-74
2024/03/18 07:06:57;;;;;;;10.30;8.27;;;;;;;14.07;64.19;97304.06;5027748;28;20184;-73
2024/03/18 07:09:23;;;;;;;12.10;7.50;;;;;;;14.06;64.43;97307.69;5027268;28;20540;-70
2024/03/18 07:11:48;;;;;;;10.20;7.50;;;;;;;14.03;64.38;97308.84;5026198;28;20905;-70
2024/03/18 07:14:14;;;;;;;10.63;8.13;;;;;;;14.10;64.55;97316.91;5019743;28;20721;-73
2024/03/18 07:16:40;;;;;;;8.53;7.20;;;;;;;14.17;64.44;97323.09;5036601;28;20211;-74
2024/03/18 07:19:05;;;;;;;11.90;8.07;;;;;;;14.20;64.49;97320.13;5035912;28;20430;-70
2024/03/18 07:21:31;;;;;;;9.03;7.67;;;;;;;14.22;64.73;97323.44;5030744;28;20188;-71
2024/03/18 07:23:56;;;;;;;12.87;9.20;;;;;;;14.22;64.33;97319.94;5042831;28;20195;-72
2024/03/18 07:26:22;;;;;;;23.00;19.30;;;;;;;14.08;64.84;97321.50;5026271;28;20235;-70
2024/03/18 07:28:48;;;;;;;32.17;28.27;;;;;;;14.12;64.98;97322.78;5034530;28;20230;-71
2024/03/18 07:31:14;;;;;;;27.10;19.90;;;;;;;14.17;64.91;97317.03;5036038;28;20183;-70
2024/03/18 07:33:42;;;;;;;13.20;11.27;;;;;;;14.22;64.97;97314.69;5044589;28;21274;-69
2024/03/18 07:36:07;;;;;;;14.73;9.83;;;;;;;14.25;64.70;97316.97;5028864;28;20191;-70
2024/03/18 07:38:33;;;;;;;11.13;8.93;;;;;;;14.22;64.65;97318.16;5031465;28;20420;-70
2024/03/18 07:40:59;;;;;;;12.90;9.20;;;;;;;14.20;64.62;97312.22;5041795;28;20755;-69
2024/03/18 07:43:25;;;;;;;13.60;8.53;;;;;;;14.15;64.63;97306.63;5033708;28;20218;-72
2024/03/18 07:45:50;;;;;;;9.60;6.37;;;;;;;14.24;64.58;97310.88;5034012;28;20423;-70
2024/03/18 07:48:16;;;;;;;8.37;7.10;;;;;;;14.40;65.00;97299.44;5033304;28;20204;-72
2024/03/18 07:50:41;;;;;;;10.40;8.27;;;;;;;14.44;64.33;97310.44;5023791;28;20230;-72
2024/03/18 07:53:06;;;;;;;9.90;8.40;;;;;;;14.42;63.81;97302.72;5032012;28;20206;-69
2024/03/18 07:55:32;;;;;;;12.67;9.10;;;;;;;14.41;64.05;97295.81;5021087;28;20211;-70
2024/03/18 07:57:57;;;;;;;14.50;9.17;;;;;;;14.37;64.54;97297.13;5028010;28;20175;-71
2024/03/18 08:00:23;;;;;;;12.90;7.50;;;;;;;14.45;64.37;97298.91;5030222;28;20184;-68
2024/03/18 08:02:49;;;;;;;8.70;7.83;;;;;;;14.54;64.20;97297.84;5017152;28;20183;-71
2024/03/18 08:05:14;;;;;;;13.17;8.27;;;;;;;14.57;63.86;97297.50;5023835;28;20202;-71
2024/03/18 08:07:40;;;;;;;9.20;7.30;;;;;;;14.57;63.95;97294.88;5018120;28;20203;-71
2024/03/18 08:10:06;;;;;;;10.77;7.07;;;;;;;14.57;64.07;97299.31;5037497;28;20237;-71
2024/03/18 08:12:31;;;;;;;10.43;7.27;;;;;;;14.51;64.09;97305.28;5024750;28;20274;-71
2024/03/18 08:14:57;;;;;;;10.90;8.90;;;;;;;14.41;64.76;97302.88;5021141;28;20489;-71
2024/03/18 08:17:23;;;;;;;16.10;9.80;;;;;;;14.34;65.43;97296.66;5033976;28;20191;-72
2024/03/18 08:19:48;;;;;;;15.27;10.67;;;;;;;14.24;65.56;97288.97;5026907;28;20195;-73
2024/03/18 08:22:16;;;;;;;11.50;9.10;;;;;;;14.23;65.64;97284.69;5020387;28;20728;-73
2024/03/18 08:24:42;;;;;;;9.73;8.67;;;;;;;14.34;65.81;97292.19;5027717;28;20270;-72
2024/03/18 08:27:09;;;;;;;10.77;8.83;;;;;;;14.34;65.98;97288.75;5025318;28;20431;-71
2024/03/18 08:29:34;;;;;;;12.60;8.87;;;;;;;14.38;66.04;97296.16;5024691;28;20426;-72
2024/03/18 08:31:59;;;;;;;12.57;8.40;;;;;;;14.40;66.11;97299.44;5034818;28;20966;-71
2024/03/18 08:34:25;;;;;;;12.20;9.00;;;;;;;14.45;66.63;97304.19;5025060;28;20250;-71
2024/03/18 08:36:51;;;;;;;10.13;8.70;;;;;;;14.44;66.02;97302.53;5023744;28;20180;-71
2024/03/18 08:39:16;;;;;;;10.57;7.63;;;;;;;14.45;65.99;97298.91;5021035;28;20180;-70
2024/03/18 08:41:42;;;;;;;9.87;8.90;;;;;;;14.46;66.21;97292.63;5027930;28;20179;-72
2024/03/18 08:44:07;;;;;;;13.27;8.33;;;;;;;14.50;66.10;97299.19;5037805;28;20204;-70
2024/03/18 08:46:33;;;;;;;11.67;8.07;;;;;;;14.52;66.15;97297.19;5033335;28;20615;-71
2024/03/18 08:48:59;;;;;;;12.83;8.90;;;;;;;14.48;66.27;97301.19;5031965;28;20202;-72
2024/03/18 08:51:24;;;;;;;12.50;8.27;;;;;;;14.52;66.38;97299.84;5044085;28;20211;-70
2024/03/18 08:53:50;;;;;;;14.40;9.93;;;;;;;14.57;66.35;97300.13;5030971;28;20199;-72
2024/03/18 08:56:15;;;;;;;15.53;9.70;;;;;;;14.62;66.23;97306.72;5038268;28;20260;-70
2024/03/18 08:58:41;;;;;;;9.60;8.60;;;;;;;14.62;66.41;97304.06;5044438;28;20205;-70
2024/03/18 09:01:09;;;;;;;8.53;7.63;;;;;;;14.62;66.39;97298.81;5039145;28;20538;-71
2024/03/18 09:03:37;;;;;;;12.80;8.60;;;;;;;14.65;66.30;97307.19;5028315;28;20192;-70
2024/03/18 09:06:03;;;;;;;12.30;8.80;;;;;;;14.68;66.33;97311.31;5030652;28;20427;-71
2024/03/18 09:08:29;;;;;;;11.67;8.30;;;;;;;14.65;66.29;97314.25;5031307;28;20496;-72
2024/03/18 09:10:54;;;;;;;11.13;7.93;;;;;;;14.62;66.56;97306.72;5039181;28;20505;-72
2024/03/18 09:13:20;;;;;;;11.03;8.10;;;;;;;14.61;66.71;97315.63;5037445;28;20287;-71
2024/03/18 09:15:45;;;;;;;12.17;7.93;;;;;;;14.56;67.35;97314.31;5030911;28;20191;-72
2024/03/18 09:18:11;;;;;;;11.00;7.73;;;;;;;14.62;67.09;97309.34;5040468;28;20176;-71
2024/03/18 09:20:39;;;;;;;9.60;7.23;;;;;;;14.66;67.13;97308.81;5038240;28;20567;-70
2024/03/18 09:23:07;;;;;;;11.93;7.03;;;;;;;14.71;67.23;97311.78;5033647;28;20195;-70
2024/03/18 09:25:33;;;;;;;9.60;6.93;;;;;;;14.76;66.98;97305.97;5031160;28;20430;-70
2024/03/18 09:27:58;;;;;;;7.33;6.63;;;;;;;14.77;66.79;97307.59;5031477;28;20850;-71
2024/03/18 09:30:24;;;;;;;9.83;6.63;;;;;;;14.80;66.95;97312.53;5036453;28;20429;-71
2024/03/18 09:32:49;;;;;;;11.40;6.30;;;;;;;14.78;66.40;97316.34;5039052;28;20551;-70
2024/03/18 09:35:15;;;;;;;8.87;6.60;;;;;;;14.83;66.30;97314.81;5034658;28;20221;-69
2024/03/18 09:37:41;;;;;;;9.20;5.77;;;;;;;14.82;66.09;97312.34;5041977;28;20172;-72
2024/03/18 09:40:07;;;;;;;10.63;6.80;;;;;;;14.81;65.94;97314.19;5037429;28;20394;-71
2024/03/18 09:42:33;;;;;;;6.97;6.10;;;;;;;14.85;66.11;97323.38;5030325;28;20604;-70
2024/03/18 09:45:00;;;;;;;8.33;5.73;;;;;;;14.87;66.03;97317.94;5027184;28;20806;-71
2024/03/18 09:47:25;;;;;;;8.07;5.10;;;;;;;14.90;65.85;97314.94;5039043;28;20470;-73
2024/03/18 09:49:53;;;;;;;9.23;5.80;;;;;;;14.82;65.49;97317.63;5036671;28;21020;-73
2024/03/18 09:52:19;;;;;;;9.77;6.20;;;;;;;14.82;65.90;97323.75;5032649;28;20273;-71
2024/03/18 09:54:45;;;;;;;7.60;5.40;;;;;;;14.88;65.79;97323.00;5039234;28;20462;-71
2024/03/18 09:57:16;;;;;;;8.40;5.40;;;;;;;14.86;65.82;97322.41;5031756;28;20425;-72
2024/03/18 09:59:45;;;;;;;11.77;5.90;;;;;;;14.89;65.56;97329.13;5027576;28;20505;-71
2024/03/18 10:02:19;;;;;;;12.10;6.43;;;;;;;14.95;65.96;97323.13;5029035;28;20427;-70
2024/03/18 10:04:46;;;;;;;14.80;6.40;;;;;;;15.06;65.92;97329.81;5032004;28;20469;-71
2024/03/18 10:07:16;;;;;;;7.73;5.67;;;;;;;15.16;65.91;97335.66;5036994;28;20445;-72
2024/03/18 10:09:46;;;;;;;10.70;6.07;;;;;;;15.07;65.13;97331.47;5038623;28;20496;-72
2024/03/18 10:12:12;;;;;;;8.23;5.70;;;;;;;15.09;65.34;97345.31;5029501;28;20434;-71
2024/03/18 10:14:38;;;;;;;8.00;5.53;;;;;;;15.19;65.23;97340.59;5036491;28;20439;-71
2024/03/18 10:17:04;;;;;;;7.57;5.50;;;;;;;15.27;65.49;97331.78;5032472;28;20445;-73
2024/03/18 10:19:30;;;;;;;6.30;5.20;;;;;;;15.35;65.19;97344.91;5034938;28;20225;-73
2024/03/18 10:21:56;;;;;;;6.13;5.40;;;;;;;15.42;65.22;97341.56;5032032;28;20261;-73
2024/03/18 10:24:21;;;;;;;10.77;5.53;;;;;;;15.43;64.66;97341.38;5038379;28;20199;-72
2024/03/18 10:26:48;;;;;;;14.50;9.53;;;;;;;15.44;64.48;97348.28;5029572;28;20485;-72
2024/03/18 10:29:14;;;;;;;13.57;8.70;;;;;;;15.34;64.25;97339.81;5037944;28;20207;-72
2024/03/18 10:31:40;;;;;;;24.33;11.47;;;;;;;15.35;64.24;97344.09;5038024;28;20425;-72
2024/03/18 10:34:08;;;;;;;23.50;12.63;;;;;;;15.36;64.48;97335.19;5028817;28;20210;-71
2024/03/18 10:36:36;;;;;;;35.60;17.17;;;;;;;15.40;64.44;97340.91;5029249;28;20429;-71
2024/03/18 10:39:09;;;;;;;21.70;10.03;;;;;;;15.43;64.46;97341.38;5028173;28;20418;-71
2024/03/18 10:41:37;;;;;;;23.80;10.13;;;;;;;15.35;63.87;97339.63;5043084;28;20943;-71
2024/03/18 10:44:18;;;;;;;10.80;6.57;;;;;;;15.33;64.38;97346.91;5032882;28;20443;-71
2024/03/18 10:46:44;;;;;;;7.17;5.37;;;;;;;15.37;64.43;97344.75;5032400;28;20414;-71
2024/03/18 10:49:15;;;;;;;10.67;6.33;;;;;;;15.38;64.41;97349.00;5030652;28;20454;-71
2024/03/18 10:51:41;;;;;;;35.50;13.40;;;;;;;15.44;64.19;97336.88;5034570;28;20504;-71
2024/03/18 10:54:13;;;;;;;72.27;24.37;;;;;;;15.40;63.99;97341.72;5032786;28;20458;-71
2024/03/18 10:56:38;;;;;;;100.70;31.00;;;;;;;15.40;64.13;97344.34;5034599;28;20188;-72
2024/03/18 10:59:04;;;;;;;121.40;34.90;;;;;;;15.40;64.26;97344.34;5037819;28;20528;-71
2024/03/18 11:01:30;;;;;;;35.37;12.23;;;;;;;15.36;64.21;97341.25;5028108;28;20183;-73
2024/03/18 11:03:55;;;;;;;52.33;18.70;;;;;;;15.40;64.53;97340.91;5031487;28;20203;-71
2024/03/18 11:06:20;;;;;;;30.90;12.97;;;;;;;15.45;64.62;97351.75;5028750;28;20771;-72
2024/03/18 11:08:49;;;;;;;14.23;7.70;;;;;;;15.50;64.95;97350.19;5035467;28;20855;-73
2024/03/18 11:11:16;;;;;;;17.77;12.03;;;;;;;15.56;64.79;97355.78;5037427;28;20237;-71
2024/03/18 11:13:42;;;;;;;18.70;13.13;;;;;;;15.55;64.94;97351.50;5034383;28;20475;-71
2024/03/18 11:16:11;;;;;;;11.20;7.17;;;;;;;15.58;64.69;97353.78;5040996;28;20476;-73
2024/03/18 11:18:44;;;;;;;12.00;6.60;;;;;;;15.57;64.92;97352.13;5029440;28;20421;-69
2024/03/18 11:21:18;;;;;;;6.70;5.83;;;;;;;15.59;64.99;97358.06;5026334;28;20426;-71
2024/03/18 11:23:44;;;;;;;14.93;6.40;;;;;;;15.59;64.78;97360.69;5031251;28;20438;-72
2024/03/18 11:26:11;;;;;;;9.33;7.23;;;;;;;15.55;65.03;97356.78;5028137;28;20402;-72
2024/03/18 11:28:41;;;;;;;7.17;6.00;;;;;;;15.55;65.30;97365.53;5023185;28;20196;-72